VOBG/BLR METAR and TAF weather

Enter ICAO airport designator
Station Type Date Time Source
VOBG METAR 2020/04/09 10:30 UTC NOAA

VOBG 091030Z 14003KT 8000 SCT012 SCT018 FEW025TCU 33/18 Q1011 NOSIG


Station Type Date Time Source
VOBG Decoded METAR 2020/04/09 10:30 UTC NOAA

Bangalore / Hindustan, India (VOBG) 12-57N 077-40E
Apr 09, 2020 - 06:30 AM EDT / 2020.04.09 1030 UTC
Wind: from the SE (140 degrees) at 3 MPH (3 KT):0
Visibility: 4 mile(s):0
Sky conditions: partly cloudy
Weather: Towering cumulus clouds observed
Temperature: 91 F (33 C)
Dew Point: 64 F (18 C)
Relative Humidity: 41%
Pressure (altimeter): 29.85 in. Hg (1011 hPa)
ob: VOBG 091030Z 14003KT 8000 SCT012 SCT018 FEW025TCU 33/18 Q1011 NOSIG
cycle: 10

Station Type Date Time Source
VOBG TAF 2020/01/13 00:00 UTC NOAA

TAF COR VOBG 132300Z 1400/1409 11005KT 1000 MIFG BKN006
TEMPO 1400/1403 0800 FG BKN004 SCT010
BECMG 1403/1404 3000 BR SCT008
BECMG 1405/1406 6000 SCT012

Example: see airport list